Time;durP1;ratioP1;P1;durP2;ratioP2;P2;SDS_P1;SDS_P2;PMS_P1;PMS_P2;Temp;Humidity;BMP_temperature;BMP_pressure;BME280_temperature;BME280_humidity;BME280_pressure;Samples;Min_cycle;Max_cycle;Signal;HPM_P1;HPM_P2
2022/06/12 00:01:23;;;;;;;3.77;2.70;;;20.80;99.90;;;;;;5009657;28;20205;-73
2022/06/12 00:03:49;;;;;;;5.38;3.00;;;20.80;99.90;;;;;;5009135;28;20296;-73
2022/06/12 00:06:18;;;;;;;4.05;2.67;;;20.80;99.90;;;;;;5008499;28;20736;-73
2022/06/12 00:08:44;;;;;;;3.17;2.87;;;20.80;99.90;;;;;;5008959;28;20202;-75
2022/06/12 00:11:17;;;;;;;5.27;3.07;;;20.80;99.90;;;;;;5009741;28;20237;-75
2022/06/12 00:13:47;;;;;;;5.87;2.80;;;20.80;99.90;;;;;;5009488;28;20200;-75
2022/06/12 00:16:15;;;;;;;3.20;2.90;;;20.80;99.90;;;;;;4994886;28;20220;-75
2022/06/12 00:18:42;;;;;;;3.53;2.80;;;20.80;99.90;;;;;;5007820;28;20209;-74
2022/06/12 00:21:13;;;;;;;4.63;3.17;;;20.80;99.90;;;;;;5009000;28;20211;-74
2022/06/12 00:23:44;;;;;;;3.00;2.70;;;20.80;99.90;;;;;;5008773;28;20197;-74
2022/06/12 00:26:14;;;;;;;3.00;2.80;;;20.80;99.90;;;;;;5008880;28;20205;-74
2022/06/12 00:28:41;;;;;;;3.80;3.10;;;20.70;99.90;;;;;;5008617;28;20683;-74
2022/06/12 00:31:08;;;;;;;3.65;3.17;;;20.80;99.90;;;;;;5008755;28;20236;-74
2022/06/12 00:33:35;;;;;;;3.00;2.80;;;20.70;99.90;;;;;;5001525;28;20206;-74
2022/06/12 00:36:07;;;;;;;3.45;2.95;;;20.70;99.90;;;;;;5008833;28;20209;-74
2022/06/12 00:38:33;;;;;;;3.10;2.90;;;20.70;99.90;;;;;;5007900;28;20229;-74
2022/06/12 00:41:00;;;;;;;4.72;3.05;;;20.60;99.90;;;;;;5008631;28;20589;-72
2022/06/12 00:43:31;;;;;;;3.60;3.05;;;20.60;99.90;;;;;;5008339;28;20608;-73
2022/06/12 00:46:01;;;;;;;3.97;3.27;;;20.60;99.90;;;;;;5008415;28;20632;-73
2022/06/12 00:48:30;;;;;;;5.70;3.57;;;20.50;99.90;;;;;;5008551;28;20209;-73
2022/06/12 00:51:01;;;;;;;3.53;3.28;;;20.50;99.90;;;;;;5008475;28;20568;-74
2022/06/12 00:53:34;;;;;;;4.30;3.28;;;20.50;99.90;;;;;;5008564;28;20197;-74
2022/06/12 00:56:08;;;;;;;5.00;3.37;;;20.50;99.90;;;;;;5008263;28;20217;-74
2022/06/12 00:58:40;;;;;;;6.63;3.43;;;20.50;99.90;;;;;;5008700;28;20220;-74
2022/06/12 01:01:14;;;;;;;4.30;3.50;;;20.50;99.90;;;;;;5007572;28;20204;-75
2022/06/12 01:06:36;;;;;;;5.07;3.83;;;20.40;99.90;;;;;;5007879;28;20217;-75
2022/06/12 01:09:11;;;;;;;4.33;3.87;;;20.40;99.90;;;;;;5008067;28;20197;-75
2022/06/12 01:11:39;;;;;;;7.57;4.10;;;20.40;99.90;;;;;;5008419;28;20199;-75
2022/06/12 01:14:10;;;;;;;6.53;3.93;;;20.40;99.90;;;;;;5007907;28;20210;-75
2022/06/12 01:16:40;;;;;;;8.93;3.90;;;20.40;99.90;;;;;;4992133;28;20198;-75
2022/06/12 01:19:12;;;;;;;4.27;3.87;;;20.30;99.90;;;;;;5007524;28;20603;-75
2022/06/12 01:22:19;;;;;;;4.53;4.00;;;20.30;99.90;;;;;;5008053;28;20197;-75
2022/06/12 01:25:17;;;;;;;4.20;3.50;;;20.30;99.90;;;;;;5007768;28;20205;-75
2022/06/12 01:28:23;;;;;;;4.80;4.40;;;20.30;99.90;;;;;;5005978;28;20212;-75
2022/06/12 01:30:57;;;;;;;5.13;4.57;;;20.30;99.90;;;;;;4967845;28;20221;-74
2022/06/12 01:33:29;;;;;;;5.60;5.00;;;20.30;99.90;;;;;;5008183;28;20659;-74
2022/06/12 01:36:01;;;;;;;5.50;4.60;;;20.30;99.90;;;;;;5008400;28;20198;-75
2022/06/12 01:38:38;;;;;;;5.50;4.90;;;20.30;99.90;;;;;;5008329;28;20236;-75
2022/06/12 01:41:14;;;;;;;4.87;4.47;;;20.30;99.90;;;;;;5008272;28;20200;-74
2022/06/12 01:43:45;;;;;;;6.47;4.73;;;20.30;99.90;;;;;;5007762;28;20245;-74
2022/06/12 01:46:18;;;;;;;5.47;4.97;;;20.30;99.90;;;;;;5008171;28;20206;-72
2022/06/12 01:48:53;;;;;;;5.07;4.63;;;20.30;99.90;;;;;;5007732;28;20201;-72
2022/06/12 01:51:27;;;;;;;7.60;4.97;;;20.30;99.90;;;;;;5007909;28;20232;-71
2022/06/12 01:54:07;;;;;;;4.73;4.27;;;20.30;99.90;;;;;;5007107;28;20644;-72
2022/06/12 01:56:45;;;;;;;5.33;4.90;;;20.30;99.90;;;;;;5007759;28;20291;-71
2022/06/12 01:59:20;;;;;;;5.73;5.10;;;20.30;99.90;;;;;;5007799;28;20863;-71
2022/06/12 02:01:55;;;;;;;4.53;4.13;;;20.30;99.90;;;;;;5007516;28;20202;-71
2022/06/12 02:04:29;;;;;;;4.73;4.40;;;20.30;99.90;;;;;;5007942;28;20226;-71
2022/06/12 02:07:02;;;;;;;5.30;4.90;;;20.30;99.90;;;;;;5007644;28;20229;-71
2022/06/12 02:09:33;;;;;;;5.77;5.27;;;20.30;99.90;;;;;;5007478;28;20204;-72
2022/06/12 02:15:05;;;;;;;5.90;4.70;;;20.40;99.90;;;;;;5007360;28;20213;-72
2022/06/12 02:17:38;;;;;;;6.87;5.20;;;20.50;99.90;;;;;;5002250;28;20706;-72
2022/06/12 02:20:10;;;;;;;5.37;4.90;;;20.50;99.90;;;;;;5007561;28;20212;-72
2022/06/12 02:22:39;;;;;;;6.50;4.73;;;20.50;99.90;;;;;;5007736;28;20205;-73
2022/06/12 02:25:11;;;;;;;5.57;5.00;;;20.60;99.90;;;;;;5000270;28;20213;-73
2022/06/12 02:27:42;;;;;;;5.57;5.17;;;20.50;99.90;;;;;;5007287;28;20214;-73
2022/06/12 02:30:15;;;;;;;5.07;4.67;;;20.60;99.90;;;;;;5009908;28;20232;-73
2022/06/12 02:32:47;;;;;;;5.87;4.43;;;20.60;99.90;;;;;;5010911;28;20202;-74
2022/06/12 02:35:19;;;;;;;5.53;4.50;;;20.60;99.90;;;;;;5011108;28;20199;-74
2022/06/12 02:37:51;;;;;;;5.37;4.87;;;20.70;99.90;;;;;;5010820;28;20264;-74
2022/06/12 02:40:24;;;;;;;5.70;5.00;;;20.60;99.90;;;;;;5011017;28;20197;-74
2022/06/12 02:42:52;;;;;;;5.93;4.80;;;20.60;99.90;;;;;;5010798;28;20241;-74
2022/06/12 02:45:24;;;;;;;5.00;4.67;;;20.70;99.90;;;;;;5003820;28;20691;-74
2022/06/12 02:47:52;;;;;;;7.70;5.18;;;20.70;99.90;;;;;;4991522;28;20190;-74
2022/06/12 02:50:23;;;;;;;4.83;4.43;;;20.70;99.90;;;;;;4990876;28;20245;-73
2022/06/12 02:52:58;;;;;;;6.32;5.07;;;20.70;99.90;;;;;;5007598;28;20205;-73
2022/06/12 02:55:30;;;;;;;5.17;4.77;;;20.70;99.90;;;;;;5010980;28;20202;-74
2022/06/12 02:58:07;;;;;;;5.90;4.40;;;20.80;99.90;;;;;;5010822;28;20232;-74
2022/06/12 03:00:39;;;;;;;6.30;4.90;;;20.80;99.90;;;;;;5010814;28;20331;-75
2022/06/12 03:03:19;;;;;;;4.65;4.25;;;20.70;99.90;;;;;;5010439;28;20637;-75
2022/06/12 03:05:50;;;;;;;7.80;4.43;;;20.60;99.90;;;;;;5010350;28;20197;-75
2022/06/12 03:08:20;;;;;;;6.43;4.50;;;20.60;99.90;;;;;;5010291;28;20205;-75
2022/06/12 03:10:50;;;;;;;5.53;4.57;;;20.60;99.90;;;;;;5010767;28;20225;-75
2022/06/12 03:13:18;;;;;;;6.07;4.43;;;20.60;99.90;;;;;;5010919;28;20205;-75
2022/06/12 03:15:47;;;;;;;4.60;4.20;;;20.60;99.90;;;;;;5010842;28;20264;-75
2022/06/12 03:18:20;;;;;;;5.43;4.73;;;20.60;99.90;;;;;;5005016;28;20214;-73
2022/06/12 03:21:07;;;;;;;5.13;4.63;;;20.60;99.90;;;;;;5010002;28;20216;-72
2022/06/12 03:23:46;;;;;;;5.47;4.97;;;20.60;99.90;;;;;;4999131;28;20217;-72
2022/06/12 03:26:23;;;;;;;7.63;4.37;;;20.70;99.90;;;;;;5009864;28;20208;-72
2022/06/12 03:28:58;;;;;;;7.17;4.60;;;20.70;99.90;;;;;;5010104;28;20201;-72
2022/06/12 03:31:31;;;;;;;5.23;4.40;;;20.60;99.90;;;;;;5009946;28;20231;-72
2022/06/12 03:34:07;;;;;;;5.30;4.70;;;20.70;99.90;;;;;;4994560;28;20186;-72
2022/06/12 03:36:39;;;;;;;5.30;4.53;;;20.60;99.90;;;;;;5010008;28;20193;-72
2022/06/12 03:39:14;;;;;;;5.40;4.90;;;20.60;99.90;;;;;;5009609;28;20230;-72
2022/06/12 03:41:50;;;;;;;4.93;4.30;;;20.50;99.90;;;;;;5009340;28;20193;-72
2022/06/12 03:44:24;;;;;;;4.47;4.07;;;20.50;99.90;;;;;;5009415;28;20232;-72
2022/06/12 03:46:55;;;;;;;4.47;4.17;;;20.50;99.90;;;;;;5009417;28;20201;-71
2022/06/12 03:49:30;;;;;;;4.20;3.93;;;20.50;99.90;;;;;;5009515;28;20724;-71
2022/06/12 03:52:05;;;;;;;5.97;4.70;;;20.60;99.90;;;;;;4991635;28;20229;-72
2022/06/12 03:54:43;;;;;;;5.73;4.80;;;20.60;99.90;;;;;;4996959;28;20217;-71
2022/06/12 04:00:06;;;;;;;5.07;4.40;;;20.60;99.90;;;;;;5009234;28;20259;-74
2022/06/12 04:02:34;;;;;;;5.33;4.80;;;20.60;99.90;;;;;;5009141;28;20201;-74
2022/06/12 04:05:06;;;;;;;5.40;4.90;;;20.60;99.90;;;;;;5009122;28;20225;-74
2022/06/12 04:07:40;;;;;;;5.27;4.87;;;20.60;99.90;;;;;;5009476;28;20467;-74
2022/06/12 04:10:14;;;;;;;5.20;4.77;;;20.50;99.90;;;;;;5009006;28;20193;-74
2022/06/12 04:12:41;;;;;;;5.83;5.07;;;20.50;99.90;;;;;;5009083;28;20197;-74
2022/06/12 04:15:15;;;;;;;6.20;5.60;;;20.40;99.90;;;;;;5008646;28;20236;-73
2022/06/12 04:17:43;;;;;;;5.97;5.03;;;20.40;99.90;;;;;;5008248;28;20671;-74
2022/06/12 04:20:16;;;;;;;6.57;5.47;;;20.30;99.90;;;;;;4991177;28;20213;-74
2022/06/12 04:22:52;;;;;;;6.40;5.27;;;20.30;99.90;;;;;;4989369;28;20209;-74
2022/06/12 04:25:32;;;;;;;5.83;5.43;;;20.30;99.90;;;;;;4989398;28;20202;-74
2022/06/12 04:27:59;;;;;;;5.97;5.27;;;20.20;99.90;;;;;;5007378;28;20201;-74
2022/06/12 04:30:30;;;;;;;6.77;6.10;;;20.20;99.90;;;;;;5008911;28;20239;-73
2022/06/12 04:33:25;;;;;;;5.97;5.47;;;20.30;99.90;;;;;;5008953;28;20208;-74
2022/06/12 04:35:56;;;;;;;6.13;5.53;;;20.20;99.90;;;;;;5006119;28;20206;-74
2022/06/12 04:38:23;;;;;;;6.90;6.30;;;20.10;99.90;;;;;;5008288;28;20230;-74
2022/06/12 04:40:51;;;;;;;6.27;5.77;;;20.10;99.90;;;;;;5008187;28;20209;-72
2022/06/12 04:43:18;;;;;;;7.13;6.17;;;20.10;99.90;;;;;;5008617;28;20606;-72
2022/06/12 04:45:45;;;;;;;6.83;5.87;;;20.20;99.90;;;;;;5008591;28;20210;-72
2022/06/12 04:48:18;;;;;;;6.90;6.30;;;20.20;99.90;;;;;;5008728;28;20211;-74
2022/06/12 04:50:45;;;;;;;7.13;6.50;;;20.20;99.90;;;;;;4991661;28;20308;-74
2022/06/12 04:53:13;;;;;;;7.33;6.67;;;20.20;99.90;;;;;;5007462;28;20240;-74
2022/06/12 04:55:40;;;;;;;6.97;6.37;;;20.20;99.90;;;;;;5008330;28;20679;-72
2022/06/12 04:58:07;;;;;;;7.33;6.60;;;20.20;99.90;;;;;;5008531;28;20213;-73
2022/06/12 05:00:34;;;;;;;7.47;6.03;;;20.30;99.90;;;;;;5008082;28;20300;-72
2022/06/12 05:03:02;;;;;;;7.57;6.87;;;20.30;99.90;;;;;;5008013;28;20216;-72
2022/06/12 05:05:30;;;;;;;8.60;7.00;;;20.30;99.90;;;;;;5008253;28;20212;-72
2022/06/12 05:07:57;;;;;;;7.77;7.00;;;20.40;99.90;;;;;;5007706;28;20213;-72
2022/06/12 05:10:25;;;;;;;7.93;7.23;;;20.40;99.90;;;;;;4996982;28;20220;-72
2022/06/12 05:12:52;;;;;;;7.67;6.90;;;20.30;99.90;;;;;;4991253;28;20206;-72
2022/06/12 05:15:19;;;;;;;7.83;7.23;;;20.30;99.90;;;;;;5000638;28;20223;-72
2022/06/12 05:17:48;;;;;;;8.33;7.50;;;20.30;99.90;;;;;;5007325;28;20992;-72
2022/06/12 05:20:19;;;;;;;8.43;7.70;;;20.30;99.90;;;;;;5008156;28;20750;-72
2022/06/12 05:22:45;;;;;;;7.33;6.73;;;20.30;99.90;;;;;;5008248;28;20201;-72
2022/06/12 05:25:13;;;;;;;8.20;7.30;;;20.40;99.90;;;;;;5008032;28;20209;-72
2022/06/12 05:27:42;;;;;;;7.63;7.03;;;20.40;99.90;;;;;;5007870;28;20197;-72
2022/06/12 05:30:11;;;;;;;7.90;7.10;;;20.40;99.90;;;;;;5007997;28;20371;-73
2022/06/12 05:32:38;;;;;;;8.07;7.37;;;20.40;99.90;;;;;;5007808;28;20244;-73
2022/06/12 05:35:07;;;;;;;8.73;7.83;;;20.40;99.90;;;;;;5007591;28;20696;-72
2022/06/12 05:37:34;;;;;;;8.05;7.25;;;20.40;99.90;;;;;;5008268;28;20594;-72
2022/06/12 05:40:00;;;;;;;9.60;8.73;;;20.40;99.90;;;;;;5007516;28;20205;-72
2022/06/12 05:42:28;;;;;;;9.13;8.23;;;20.40;99.90;;;;;;5008183;28;20204;-75
2022/06/12 05:44:56;;;;;;;8.90;8.20;;;20.40;99.90;;;;;;5007776;28;20233;-75
2022/06/12 05:47:23;;;;;;;10.37;8.03;;;20.40;99.90;;;;;;5008540;28;20213;-75
2022/06/12 05:49:50;;;;;;;9.23;8.43;;;20.50;99.90;;;;;;5007624;28;20660;-75
2022/06/12 05:52:17;;;;;;;9.73;8.80;;;20.50;99.90;;;;;;5007822;28;20229;-73
2022/06/12 05:54:44;;;;;;;8.47;7.63;;;20.50;99.90;;;;;;5007487;28;20217;-73
2022/06/12 05:57:10;;;;;;;9.10;8.30;;;20.50;99.90;;;;;;5008067;28;20210;-72
2022/06/12 05:59:37;;;;;;;9.90;8.90;;;20.60;99.90;;;;;;5007835;28;20208;-75
2022/06/12 06:02:06;;;;;;;7.67;7.07;;;20.60;99.90;;;;;;5007911;28;20221;-76
2022/06/12 06:04:33;;;;;;;8.65;7.95;;;20.60;99.90;;;;;;5009674;28;20241;-75
2022/06/12 06:07:00;;;;;;;8.30;7.50;;;20.70;99.90;;;;;;4998034;28;20212;-72
2022/06/12 06:09:29;;;;;;;9.52;8.55;;;20.70;99.90;;;;;;5003418;28;20202;-77
2022/06/12 06:11:55;;;;;;;8.95;8.25;;;20.80;99.90;;;;;;4999400;28;20607;-76
2022/06/12 06:14:22;;;;;;;10.18;9.30;;;20.80;99.90;;;;;;4992202;28;20212;-76
2022/06/12 06:16:49;;;;;;;10.90;9.80;;;20.80;99.90;;;;;;4994762;28;20209;-76
2022/06/12 06:19:18;;;;;;;9.40;8.50;;;20.80;99.90;;;;;;5011590;28;20300;-76
2022/06/12 06:21:45;;;;;;;9.30;8.60;;;20.90;99.90;;;;;;5010784;28;20672;-73
2022/06/12 06:24:13;;;;;;;11.65;8.88;;;20.90;99.90;;;;;;5010888;28;20217;-73
2022/06/12 06:26:40;;;;;;;9.43;8.63;;;21.00;99.90;;;;;;5011092;28;20214;-74
2022/06/12 06:29:07;;;;;;;9.45;8.75;;;21.00;99.90;;;;;;5011233;28;20213;-76
2022/06/12 06:31:34;;;;;;;9.77;8.80;;;21.00;99.90;;;;;;5011073;28;20236;-76
2022/06/12 06:34:01;;;;;;;10.13;9.13;;;21.00;99.90;;;;;;5011191;28;20689;-73
2022/06/12 06:36:30;;;;;;;9.30;8.60;;;21.00;99.90;;;;;;5010607;28;20228;-73
2022/06/12 06:38:57;;;;;;;9.80;8.80;;;21.10;99.90;;;;;;5010830;28;20232;-73
2022/06/12 06:41:25;;;;;;;8.80;7.80;;;21.20;99.90;;;;;;5010794;28;20213;-73
2022/06/12 06:46:38;;;;;;;10.25;9.32;;;21.40;99.90;;;;;;4993193;28;20217;-75
2022/06/12 06:49:05;;;;;;;9.45;8.75;;;21.40;99.90;;;;;;4991412;28;20206;-75
2022/06/12 06:51:35;;;;;;;7.78;7.25;;;21.50;99.90;;;;;;4991240;28;20234;-73
2022/06/12 06:54:04;;;;;;;8.00;7.20;;;21.50;99.90;;;;;;4990919;28;20210;-73
2022/06/12 06:56:31;;;;;;;7.93;7.25;;;21.50;99.90;;;;;;4991306;28;20268;-73
2022/06/12 06:58:58;;;;;;;7.70;6.93;;;21.60;99.90;;;;;;4990822;28;20210;-73
2022/06/12 07:01:25;;;;;;;7.70;7.20;;;21.60;99.90;;;;;;4990911;28;20206;-73
2022/06/12 07:03:53;;;;;;;7.93;7.32;;;21.60;99.90;;;;;;4993676;28;20292;-73
2022/06/12 07:06:20;;;;;;;7.93;7.22;;;21.60;99.90;;;;;;5003589;28;20208;-73
2022/06/12 07:08:48;;;;;;;8.13;7.28;;;21.60;99.90;;;;;;5009823;28;20213;-74
2022/06/12 07:11:15;;;;;;;7.80;7.20;;;21.50;99.90;;;;;;5010243;28;20482;-73
2022/06/12 07:13:42;;;;;;;7.35;6.75;;;21.50;99.90;;;;;;5010294;28;20205;-73
2022/06/12 07:16:09;;;;;;;7.78;7.20;;;21.50;99.90;;;;;;5008481;28;20687;-73
2022/06/12 07:18:36;;;;;;;7.30;6.57;;;21.50;99.90;;;;;;5009944;28;20747;-73
2022/06/12 07:21:05;;;;;;;8.13;7.32;;;21.50;99.90;;;;;;5009210;28;20216;-73
2022/06/12 07:23:34;;;;;;;7.90;7.10;;;21.50;99.90;;;;;;5009531;28;20198;-76
2022/06/12 07:26:08;;;;;;;8.18;6.80;;;21.40;99.90;;;;;;5006717;28;20206;-76
2022/06/12 07:28:39;;;;;;;7.28;6.35;;;21.40;99.90;;;;;;5008016;28;20202;-75
2022/06/12 07:31:08;;;;;;;6.95;6.43;;;21.40;99.90;;;;;;5007489;28;20219;-75
2022/06/12 07:33:37;;;;;;;6.85;6.25;;;21.40;99.90;;;;;;5008167;28;20214;-75
2022/06/12 07:36:08;;;;;;;7.20;6.70;;;21.40;99.90;;;;;;5007687;28;20692;-75
2022/06/12 07:38:37;;;;;;;7.03;6.32;;;21.40;99.90;;;;;;5007923;28;20229;-75
2022/06/12 07:41:10;;;;;;;7.03;6.53;;;21.50;99.90;;;;;;5007617;28;20308;-75
2022/06/12 07:43:38;;;;;;;6.47;6.07;;;21.50;99.90;;;;;;5007717;28;20237;-73
2022/06/12 07:46:11;;;;;;;7.55;5.80;;;21.60;99.90;;;;;;4994915;28;20242;-73
2022/06/12 07:48:38;;;;;;;6.95;6.25;;;21.60;99.90;;;;;;4993009;28;20283;-73
2022/06/12 07:51:11;;;;;;;6.82;6.22;;;21.70;99.90;;;;;;5009422;28;20205;-73
2022/06/12 07:53:38;;;;;;;6.10;5.50;;;21.70;99.90;;;;;;5009609;28;20240;-73
2022/06/12 07:56:14;;;;;;;7.57;6.90;;;21.80;99.90;;;;;;5009771;28;20312;-73
2022/06/12 07:58:42;;;;;;;6.50;6.00;;;21.80;99.90;;;;;;5009496;28;20610;-73
2022/06/12 08:01:12;;;;;;;6.10;5.60;;;21.90;99.90;;;;;;5009356;28;20205;-71
2022/06/12 08:03:39;;;;;;;7.28;5.45;;;21.90;99.90;;;;;;5009146;28;20214;-72
2022/06/12 08:06:06;;;;;;;5.63;4.97;;;21.90;99.90;;;;;;5009094;28;20213;-72
2022/06/12 08:08:34;;;;;;;5.88;5.28;;;22.00;99.90;;;;;;5008860;28;20206;-72
2022/06/12 08:11:03;;;;;;;4.88;4.50;;;22.00;99.90;;;;;;4997885;28;20206;-72
2022/06/12 08:13:34;;;;;;;5.80;5.30;;;22.10;99.90;;;;;;4996123;28;20257;-72
2022/06/12 08:16:04;;;;;;;7.32;6.57;;;22.20;99.90;;;;;;5006728;28;20201;-72
2022/06/12 08:18:31;;;;;;;6.43;5.80;;;22.20;99.90;;;;;;5006605;28;20221;-72
2022/06/12 08:21:05;;;;;;;5.53;5.10;;;22.20;99.90;;;;;;5006524;28;20209;-72
2022/06/12 08:23:37;;;;;;;7.55;4.93;;;22.30;99.90;;;;;;5006263;28;20204;-72
2022/06/12 08:26:09;;;;;;;5.18;4.80;;;22.40;99.90;;;;;;5007527;28;20294;-72
2022/06/12 08:28:40;;;;;;;5.15;4.55;;;22.50;99.90;;;;;;5008417;28;20209;-72
2022/06/12 08:31:12;;;;;;;4.85;4.32;;;22.50;99.90;;;;;;5008564;28;20189;-72
2022/06/12 08:33:42;;;;;;;5.38;4.88;;;22.60;99.90;;;;;;5008932;28;20217;-72
2022/06/12 08:36:11;;;;;;;4.78;4.38;;;22.60;99.90;;;;;;5008730;28;20205;-72
2022/06/12 08:38:39;;;;;;;5.57;4.45;;;22.70;99.90;;;;;;5008467;28;20591;-72
2022/06/12 08:41:11;;;;;;;3.80;3.50;;;22.70;99.90;;;;;;5008726;28;20209;-72
2022/06/12 08:43:45;;;;;;;5.72;4.00;;;22.80;99.90;;;;;;5008287;28;20245;-72
2022/06/12 08:46:20;;;;;;;4.85;3.90;;;22.90;99.90;;;;;;5008233;28;20204;-72
2022/06/12 08:48:55;;;;;;;3.85;3.53;;;22.90;99.90;;;;;;5008363;28;20189;-72
2022/06/12 08:51:27;;;;;;;5.80;3.50;;;23.00;99.90;;;;;;5008563;28;20288;-72
2022/06/12 08:54:03;;;;;;;3.58;2.80;;;23.00;99.90;;;;;;5008029;28;20217;-72
2022/06/12 08:56:36;;;;;;;5.25;2.65;;;23.10;99.90;;;;;;4988583;28;20252;-71
2022/06/12 08:59:09;;;;;;;5.50;2.78;;;23.00;99.90;;;;;;5000262;28;20212;-71
2022/06/12 09:01:41;;;;;;;4.90;2.63;;;22.90;99.90;;;;;;4989451;28;20219;-72
2022/06/12 09:04:11;;;;;;;5.18;2.53;;;22.90;99.90;;;;;;4988761;28;20289;-72
2022/06/12 09:06:44;;;;;;;2.90;2.45;;;22.90;99.90;;;;;;4995674;28;20572;-72
2022/06/12 09:09:22;;;;;;;4.50;2.50;;;23.00;99.90;;;;;;5008200;28;20193;-72
2022/06/12 09:11:53;;;;;;;5.60;2.60;;;23.00;99.90;;;;;;5008193;28;20285;-72
2022/06/12 09:14:39;;;;;;;4.50;2.72;;;23.10;99.90;;;;;;5008476;28;20198;-72
2022/06/12 09:17:15;;;;;;;3.58;2.50;;;23.10;99.90;;;;;;4993876;28;20205;-72
2022/06/12 09:19:52;;;;;;;4.90;2.75;;;23.00;99.90;;;;;;5007961;28;20201;-72
2022/06/12 09:22:26;;;;;;;3.50;2.40;;;22.90;99.90;;;;;;5008176;28;20205;-72
2022/06/12 09:25:03;;;;;;;4.03;3.03;;;22.90;99.90;;;;;;5007682;28;20649;-72
2022/06/12 09:27:35;;;;;;;5.93;3.08;;;23.00;99.90;;;;;;5008026;28;20193;-72
2022/06/12 09:30:08;;;;;;;3.97;2.63;;;23.10;99.90;;;;;;5008101;28;20279;-72
2022/06/12 09:32:49;;;;;;;5.35;2.63;;;23.20;99.90;;;;;;5008050;28;20584;-71
2022/06/12 09:35:29;;;;;;;4.38;2.85;;;23.30;99.90;;;;;;5007786;28;20215;-72
2022/06/12 09:38:19;;;;;;;5.85;3.17;;;23.40;99.90;;;;;;5007498;28;20644;-72
2022/06/12 09:41:07;;;;;;;5.43;3.75;;;23.30;99.90;;;;;;5011566;28;20197;-72
2022/06/12 09:43:40;;;;;;;5.03;2.63;;;23.20;99.90;;;;;;5009215;28;20276;-72
2022/06/12 09:46:22;;;;;;;3.22;2.50;;;23.30;99.90;;;;;;5011799;28;20304;-72
2022/06/12 09:49:02;;;;;;;3.42;2.50;;;23.40;99.90;;;;;;4997366;28;20201;-72
2022/06/12 09:51:54;;;;;;;5.50;2.58;;;23.50;99.90;;;;;;4992023;28;20719;-72
2022/06/12 09:54:30;;;;;;;5.05;2.70;;;23.50;99.90;;;;;;4996420;28;20202;-72
2022/06/12 09:57:04;;;;;;;5.43;2.30;;;23.60;99.90;;;;;;5011013;28;20213;-72
2022/06/12 09:59:38;;;;;;;7.68;3.05;;;23.60;99.90;;;;;;5011647;28;20193;-72
2022/06/12 10:02:15;;;;;;;4.40;2.10;;;23.60;99.90;;;;;;5011549;28;20202;-72
2022/06/12 10:04:51;;;;;;;5.75;2.17;;;23.60;99.50;;;;;;5011365;28;20201;-72
2022/06/12 10:07:23;;;;;;;4.80;2.97;;;23.70;99.30;;;;;;5011219;28;20201;-72
2022/06/12 10:09:55;;;;;;;5.53;2.50;;;23.80;99.30;;;;;;5010866;28;20208;-72
2022/06/12 10:12:25;;;;;;;4.45;2.67;;;23.80;99.00;;;;;;5011336;28;20317;-72
2022/06/12 10:15:00;;;;;;;3.95;2.10;;;23.80;98.50;;;;;;5008267;28;20212;-72
2022/06/12 10:17:35;;;;;;;4.88;2.42;;;23.80;98.80;;;;;;5000040;28;20193;-72
2022/06/12 10:20:07;;;;;;;6.38;2.75;;;23.90;98.90;;;;;;5011136;28;20197;-72
2022/06/12 10:22:37;;;;;;;5.75;2.15;;;24.10;98.40;;;;;;4991561;28;20285;-72
2022/06/12 10:25:06;;;;;;;4.22;2.13;;;24.20;98.40;;;;;;5009498;28;20284;-72
2022/06/12 10:27:42;;;;;;;7.90;2.35;;;24.30;98.10;;;;;;5011002;28;20664;-72
2022/06/12 10:30:32;;;;;;;7.50;2.20;;;24.40;97.30;;;;;;5011509;28;20213;-72
2022/06/12 10:33:17;;;;;;;3.95;2.10;;;24.30;97.40;;;;;;5011147;28;20308;-72
2022/06/12 10:35:53;;;;;;;6.18;2.30;;;24.50;97.90;;;;;;4991073;28;20693;-72
2022/06/12 10:38:22;;;;;;;4.65;2.25;;;24.30;97.50;;;;;;4991265;28;20232;-72
2022/06/12 10:40:55;;;;;;;4.20;2.13;;;24.30;98.00;;;;;;4990939;28;20668;-72
2022/06/12 10:43:28;;;;;;;9.35;2.40;;;24.30;98.00;;;;;;4990907;28;20244;-72
2022/06/12 10:46:18;;;;;;;3.88;2.13;;;24.60;98.60;;;;;;5002445;28;20235;-72
2022/06/12 10:48:59;;;;;;;4.47;2.22;;;24.80;98.30;;;;;;5010679;28;20572;-72
2022/06/12 10:51:31;;;;;;;3.30;2.28;;;24.70;97.60;;;;;;5010142;28;20673;-72
2022/06/12 10:54:00;;;;;;;3.22;1.85;;;24.60;97.70;;;;;;5009980;28;20233;-72
2022/06/12 10:56:37;;;;;;;6.75;2.33;;;24.40;97.80;;;;;;5010496;28;20216;-72
2022/06/12 10:59:36;;;;;;;5.68;2.40;;;24.40;98.10;;;;;;5010611;28;20200;-72
2022/06/12 11:02:33;;;;;;;4.15;2.22;;;24.40;98.20;;;;;;5009894;28;20686;-72
2022/06/12 11:05:16;;;;;;;9.75;2.50;;;24.40;97.50;;;;;;5010358;28;20207;-72
2022/06/12 11:07:52;;;;;;;3.28;1.90;;;24.50;97.30;;;;;;5010491;28;20194;-72
2022/06/12 11:10:27;;;;;;;4.55;1.90;;;24.60;96.80;;;;;;5009930;28;20197;-72
2022/06/12 11:13:06;;;;;;;5.20;2.15;;;24.70;95.80;;;;;;5010276;28;20221;-72
2022/06/12 11:15:50;;;;;;;4.55;2.20;;;24.80;96.10;;;;;;5010400;28;20228;-72
2022/06/12 11:18:25;;;;;;;2.88;1.88;;;24.80;95.80;;;;;;4992151;28;20305;-72
2022/06/12 11:21:06;;;;;;;5.22;2.42;;;24.80;96.30;;;;;;5006273;28;20236;-72
2022/06/12 11:24:09;;;;;;;3.65;2.30;;;24.70;96.50;;;;;;5009651;28;20201;-72
2022/06/12 11:26:50;;;;;;;5.40;3.10;;;24.70;96.40;;;;;;5009919;28;20197;-72
2022/06/12 11:29:30;;;;;;;4.20;2.45;;;24.60;96.90;;;;;;5010287;28;20213;-72
2022/06/12 11:32:11;;;;;;;4.13;2.08;;;24.50;96.80;;;;;;5009545;28;20209;-72
2022/06/12 11:34:50;;;;;;;6.60;2.58;;;24.50;96.90;;;;;;5009979;28;20600;-72
2022/06/12 11:37:39;;;;;;;4.97;2.45;;;24.70;97.20;;;;;;5009911;28;20257;-72
2022/06/12 11:40:17;;;;;;;5.32;2.78;;;24.60;96.30;;;;;;5009454;28;20284;-72
2022/06/12 11:43:01;;;;;;;4.80;2.42;;;24.80;96.70;;;;;;5009255;28;20193;-72
2022/06/12 11:45:39;;;;;;;4.78;2.05;;;25.00;96.00;;;;;;4990216;28;20210;-72
2022/06/12 11:48:25;;;;;;;4.95;2.90;;;25.20;96.10;;;;;;5003077;28;20215;-72
2022/06/12 11:51:05;;;;;;;8.68;2.38;;;25.30;96.20;;;;;;4989911;28;20730;-72
2022/06/12 11:53:45;;;;;;;2.47;2.17;;;25.60;96.30;;;;;;4989916;28;20229;-72
2022/06/12 11:56:20;;;;;;;6.53;2.10;;;25.60;95.50;;;;;;4989862;28;20198;-72
2022/06/12 11:59:00;;;;;;;4.85;2.40;;;25.50;95.60;;;;;;4989692;28;20277;-72
2022/06/12 12:01:35;;;;;;;4.35;2.50;;;25.40;96.00;;;;;;4989470;28;20300;-72
2022/06/12 12:04:39;;;;;;;3.67;2.50;;;25.20;95.80;;;;;;4989758;28;20252;-72
2022/06/12 12:07:19;;;;;;;3.67;2.40;;;25.30;95.70;;;;;;4989568;28;20194;-72
2022/06/12 12:10:05;;;;;;;7.70;2.42;;;25.60;94.40;;;;;;4989447;28;20209;-72
2022/06/12 12:12:37;;;;;;;5.50;2.53;;;25.90;94.30;;;;;;4992801;28;20278;-72
2022/06/12 12:15:11;;;;;;;4.05;3.03;;;26.00;92.90;;;;;;5005972;28;20610;-72
2022/06/12 12:17:41;;;;;;;2.95;2.22;;;25.70;93.50;;;;;;5008811;28;20715;-72
2022/06/12 12:20:16;;;;;;;7.82;3.03;;;25.60;94.30;;;;;;5009144;28;20213;-72
2022/06/12 12:22:49;;;;;;;4.25;2.53;;;25.80;95.00;;;;;;5008918;28;20203;-72
2022/06/12 12:25:25;;;;;;;12.63;3.55;;;26.10;95.60;;;;;;5008584;28;20997;-72
2022/06/12 12:27:54;;;;;;;5.90;2.75;;;26.50;95.00;;;;;;5008675;28;20231;-72
2022/06/12 12:30:24;;;;;;;4.35;2.72;;;26.60;93.90;;;;;;5008713;28;20206;-72
2022/06/12 12:32:54;;;;;;;4.07;2.97;;;26.50;94.00;;;;;;5009227;28;20217;-72
2022/06/12 12:41:14;;;;;;;6.32;2.35;;;26.70;93.30;;;;;;5008447;28;20885;-72
2022/06/12 12:43:49;;;;;;;3.50;2.50;;;26.70;92.30;;;;;;5008179;28;20320;-72
2022/06/12 12:46:17;;;;;;;3.42;2.35;;;26.90;92.10;;;;;;4993895;28;20244;-72
2022/06/12 12:48:46;;;;;;;3.05;2.20;;;27.10;91.30;;;;;;4989047;28;20221;-72
2022/06/12 12:51:25;;;;;;;6.00;2.63;;;27.20;91.30;;;;;;4988929;28;20205;-72
2022/06/12 12:53:53;;;;;;;4.25;2.40;;;27.40;91.10;;;;;;4988496;28;20225;-72
2022/06/12 12:56:32;;;;;;;4.28;2.58;;;27.30;90.10;;;;;;4988915;28;20214;-72
2022/06/12 12:59:04;;;;;;;4.75;2.45;;;27.40;90.40;;;;;;4988705;28;20618;-72
2022/06/12 13:01:37;;;;;;;12.65;2.88;;;27.60;89.70;;;;;;4992787;28;20193;-72
2022/06/12 13:04:14;;;;;;;5.07;2.05;;;27.40;90.20;;;;;;5008280;28;20197;-72
2022/06/12 13:06:54;;;;;;;3.88;2.00;;;27.50;88.50;;;;;;5008111;28;20193;-72
2022/06/12 13:09:49;;;;;;;4.80;2.38;;;27.40;88.60;;;;;;5012940;28;20193;-72
2022/06/12 13:12:34;;;;;;;6.85;2.63;;;27.40;87.20;;;;;;5027863;28;20200;-72
2022/06/12 13:15:17;;;;;;;9.68;2.00;;;27.20;88.30;;;;;;5022617;28;20236;-72
2022/06/12 13:17:53;;;;;;;6.47;2.47;;;26.80;89.00;;;;;;5002876;28;20553;-71
2022/06/12 13:20:36;;;;;;;2.30;2.10;;;26.90;88.90;;;;;;5008238;28;20194;-71
2022/06/12 13:23:15;;;;;;;3.40;2.33;;;27.00;89.00;;;;;;5007855;28;20203;-72
2022/06/12 13:25:47;;;;;;;4.22;2.22;;;27.40;88.80;;;;;;5008098;28;20197;-71
2022/06/12 13:28:22;;;;;;;3.85;1.80;;;27.60;88.50;;;;;;5008195;28;20190;-72
2022/06/12 13:30:50;;;;;;;3.33;2.10;;;27.80;86.80;;;;;;5007840;28;20560;-73
2022/06/12 13:33:20;;;;;;;4.18;2.25;;;28.00;86.20;;;;;;5008146;28;20202;-72